sensor_id;sensor_type;location;lat;lon;timestamp;pressure;altitude;pressure_sealevel;temperature;humidity
4398;BME280;2213;49.720;7.296;2023-04-21T00:02:19;97783.72;;;8.20;100.00
4398;BME280;2213;49.720;7.296;2023-04-21T00:04:48;97781.94;;;8.20;100.00
4398;BME280;2213;49.720;7.296;2023-04-21T00:07:19;97783.91;;;8.18;100.00
4398;BME280;2213;49.720;7.296;2023-04-21T00:09:51;97775.91;;;8.20;100.00
4398;BME280;2213;49.720;7.296;2023-04-21T00:12:21;97774.31;;;8.19;100.00
4398;BME280;2213;49.720;7.296;2023-04-21T00:14:50;97778.72;;;8.18;100.00
4398;BME280;2213;49.720;7.296;2023-04-21T00:17:20;97771.88;;;8.17;100.00
4398;BME280;2213;49.720;7.296;2023-04-21T00:19:50;97775.81;;;8.13;100.00
4398;BME280;2213;49.720;7.296;2023-04-21T00:22:20;97765.59;;;8.12;100.00
4398;BME280;2213;49.720;7.296;2023-04-21T00:24:51;97766.41;;;8.12;100.00
4398;BME280;2213;49.720;7.296;2023-04-21T00:27:21;97772.25;;;8.14;100.00
4398;BME280;2213;49.720;7.296;2023-04-21T00:29:51;97767.38;;;8.11;100.00
4398;BME280;2213;49.720;7.296;2023-04-21T00:32:20;97758.16;;;8.08;100.00
4398;BME280;2213;49.720;7.296;2023-04-21T00:34:50;97756.53;;;8.07;100.00
4398;BME280;2213;49.720;7.296;2023-04-21T00:37:20;97754.09;;;8.06;100.00
4398;BME280;2213;49.720;7.296;2023-04-21T00:39:51;97753.09;;;8.07;100.00
4398;BME280;2213;49.720;7.296;2023-04-21T00:42:21;97753.72;;;8.09;100.00
4398;BME280;2213;49.720;7.296;2023-04-21T00:44:53;97754.53;;;8.09;100.00
4398;BME280;2213;49.720;7.296;2023-04-21T00:47:23;97750.13;;;8.10;100.00
4398;BME280;2213;49.720;7.296;2023-04-21T00:49:54;97746.91;;;8.08;100.00
4398;BME280;2213;49.720;7.296;2023-04-21T00:52:26;97745.75;;;8.10;100.00
4398;BME280;2213;49.720;7.296;2023-04-21T00:54:59;97741.72;;;8.08;100.00
4398;BME280;2213;49.720;7.296;2023-04-21T00:57:31;97745.13;;;8.08;100.00
4398;BME280;2213;49.720;7.296;2023-04-21T01:00:01;97733.91;;;8.08;100.00
4398;BME280;2213;49.720;7.296;2023-04-21T01:02:34;97733.09;;;8.07;100.00
4398;BME280;2213;49.720;7.296;2023-04-21T01:05:07;97740.91;;;8.07;100.00
4398;BME280;2213;49.720;7.296;2023-04-21T01:07:39;97738.09;;;8.09;100.00
4398;BME280;2213;49.720;7.296;2023-04-21T01:10:13;97743.50;;;8.07;100.00
4398;BME280;2213;49.720;7.296;2023-04-21T01:12:43;97741.72;;;8.08;100.00
4398;BME280;2213;49.720;7.296;2023-04-21T01:15:15;97740.91;;;8.07;100.00
4398;BME280;2213;49.720;7.296;2023-04-21T01:17:45;97743.31;;;8.09;100.00
4398;BME280;2213;49.720;7.296;2023-04-21T01:20:17;97740.09;;;8.07;100.00
4398;BME280;2213;49.720;7.296;2023-04-21T01:22:48;97740.69;;;8.09;100.00
4398;BME280;2213;49.720;7.296;2023-04-21T01:25:19;97729.50;;;8.08;100.00
4398;BME280;2213;49.720;7.296;2023-04-21T01:27:53;97732.09;;;8.08;100.00
4398;BME280;2213;49.720;7.296;2023-04-21T01:30:24;97726.09;;;8.08;100.00
4398;BME280;2213;49.720;7.296;2023-04-21T01:32:54;97727.69;;;8.09;100.00
4398;BME280;2213;49.720;7.296;2023-04-21T01:35:26;97727.22;;;8.05;100.00
4398;BME280;2213;49.720;7.296;2023-04-21T01:37:58;97718.00;;;8.03;100.00
4398;BME280;2213;49.720;7.296;2023-04-21T01:40:29;97713.16;;;8.00;100.00
4398;BME280;2213;49.720;7.296;2023-04-21T01:42:59;97719.53;;;7.97;100.00
4398;BME280;2213;49.720;7.296;2023-04-21T01:45:28;97708.09;;;7.98;100.00
4398;BME280;2213;49.720;7.296;2023-04-21T01:47:58;97723.72;;;7.98;100.00
4398;BME280;2213;49.720;7.296;2023-04-21T01:50:27;97727.94;;;7.99;100.00
4398;BME280;2213;49.720;7.296;2023-04-21T01:52:58;97725.34;;;7.99;100.00
4398;BME280;2213;49.720;7.296;2023-04-21T01:55:28;97727.13;;;7.99;100.00
4398;BME280;2213;49.720;7.296;2023-04-21T01:57:57;97721.13;;;7.98;100.00
4398;BME280;2213;49.720;7.296;2023-04-21T02:00:27;97726.53;;;7.97;100.00
4398;BME280;2213;49.720;7.296;2023-04-21T02:02:58;97728.47;;;7.95;100.00
4398;BME280;2213;49.720;7.296;2023-04-21T02:05:27;97733.06;;;7.93;100.00
4398;BME280;2213;49.720;7.296;2023-04-21T02:07:59;97727.84;;;7.93;100.00
4398;BME280;2213;49.720;7.296;2023-04-21T02:10:29;97740.72;;;7.94;100.00
4398;BME280;2213;49.720;7.296;2023-04-21T02:13:00;97735.31;;;7.96;100.00
4398;BME280;2213;49.720;7.296;2023-04-21T02:15:29;97731.72;;;7.97;100.00
4398;BME280;2213;49.720;7.296;2023-04-21T02:18:00;97734.50;;;7.95;100.00
4398;BME280;2213;49.720;7.296;2023-04-21T02:20:31;97728.47;;;7.95;100.00
4398;BME280;2213;49.720;7.296;2023-04-21T02:23:02;97725.88;;;7.95;100.00
4398;BME280;2213;49.720;7.296;2023-04-21T02:25:33;97717.44;;;7.93;100.00
4398;BME280;2213;49.720;7.296;2023-04-21T02:28:04;97720.22;;;7.91;100.00
4398;BME280;2213;49.720;7.296;2023-04-21T02:30:33;97719.78;;;7.88;100.00
4398;BME280;2213;49.720;7.296;2023-04-21T02:33:03;97723.19;;;7.88;100.00
4398;BME280;2213;49.720;7.296;2023-04-21T02:35:34;97718.97;;;7.87;100.00
4398;BME280;2213;49.720;7.296;2023-04-21T02:38:06;97716.53;;;7.86;100.00
4398;BME280;2213;49.720;7.296;2023-04-21T02:40:36;97720.94;;;7.85;100.00
4398;BME280;2213;49.720;7.296;2023-04-21T02:43:08;97720.31;;;7.83;100.00
4398;BME280;2213;49.720;7.296;2023-04-21T02:45:39;97715.47;;;7.80;100.00
4398;BME280;2213;49.720;7.296;2023-04-21T02:48:08;97716.91;;;7.83;100.00
4398;BME280;2213;49.720;7.296;2023-04-21T02:50:38;97714.91;;;7.85;100.00
4398;BME280;2213;49.720;7.296;2023-04-21T02:53:10;97715.91;;;7.84;100.00
4398;BME280;2213;49.720;7.296;2023-04-21T02:55:42;97719.22;;;7.78;100.00
4398;BME280;2213;49.720;7.296;2023-04-21T02:58:12;97719.56;;;7.75;100.00
4398;BME280;2213;49.720;7.296;2023-04-21T03:00:42;97721.56;;;7.73;100.00
4398;BME280;2213;49.720;7.296;2023-04-21T03:03:15;97728.19;;;7.75;100.00
4398;BME280;2213;49.720;7.296;2023-04-21T03:05:45;97721.56;;;7.73;100.00
4398;BME280;2213;49.720;7.296;2023-04-21T03:08:17;97724.50;;;7.70;100.00
4398;BME280;2213;49.720;7.296;2023-04-21T03:10:48;97738.16;;;7.72;100.00
4398;BME280;2213;49.720;7.296;2023-04-21T03:13:18;97739.31;;;7.69;100.00
4398;BME280;2213;49.720;7.296;2023-04-21T03:15:48;97734.09;;;7.69;100.00
4398;BME280;2213;49.720;7.296;2023-04-21T03:18:19;97743.88;;;7.67;100.00
4398;BME280;2213;49.720;7.296;2023-04-21T03:20:49;97739.03;;;7.64;100.00
4398;BME280;2213;49.720;7.296;2023-04-21T03:23:21;97740.81;;;7.64;100.00
4398;BME280;2213;49.720;7.296;2023-04-21T03:25:51;97747.03;;;7.63;100.00
4398;BME280;2213;49.720;7.296;2023-04-21T03:28:21;97742.63;;;7.63;100.00
4398;BME280;2213;49.720;7.296;2023-04-21T03:30:51;97745.22;;;7.63;100.00
4398;BME280;2213;49.720;7.296;2023-04-21T03:33:22;97741.47;;;7.66;100.00
4398;BME280;2213;49.720;7.296;2023-04-21T03:35:53;97754.28;;;7.67;100.00
4398;BME280;2213;49.720;7.296;2023-04-21T03:38:27;97749.88;;;7.68;100.00
4398;BME280;2213;49.720;7.296;2023-04-21T03:40:57;97753.94;;;7.70;100.00
4398;BME280;2213;49.720;7.296;2023-04-21T03:43:28;97754.72;;;7.71;100.00
4398;BME280;2213;49.720;7.296;2023-04-21T03:45:59;97759.94;;;7.71;100.00
4398;BME280;2213;49.720;7.296;2023-04-21T03:48:30;97765.78;;;7.73;100.00
4398;BME280;2213;49.720;7.296;2023-04-21T03:51:00;97758.69;;;7.67;100.00
4398;BME280;2213;49.720;7.296;2023-04-21T03:53:32;97753.81;;;7.64;100.00
4398;BME280;2213;49.720;7.296;2023-04-21T03:56:03;97753.03;;;7.63;100.00
4398;BME280;2213;49.720;7.296;2023-04-21T03:58:33;97757.59;;;7.61;100.00
4398;BME280;2213;49.720;7.296;2023-04-21T04:01:05;97761.00;;;7.62;100.00
4398;BME280;2213;49.720;7.296;2023-04-21T04:03:36;97759.84;;;7.64;100.00
4398;BME280;2213;49.720;7.296;2023-04-21T04:06:06;97753.81;;;7.64;100.00
4398;BME280;2213;49.720;7.296;2023-04-21T04:08:36;97746.81;;;7.64;100.00
4398;BME280;2213;49.720;7.296;2023-04-21T04:11:06;97743.09;;;7.67;100.00
4398;BME280;2213;49.720;7.296;2023-04-21T04:13:36;97744.53;;;7.69;100.00
4398;BME280;2213;49.720;7.296;2023-04-21T04:16:07;97741.72;;;7.71;100.00
4398;BME280;2213;49.720;7.296;2023-04-21T04:18:37;97737.53;;;7.70;100.00
4398;BME280;2213;49.720;7.296;2023-04-21T04:21:07;97726.75;;;7.73;100.00
4398;BME280;2213;49.720;7.296;2023-04-21T04:23:38;97726.75;;;7.73;100.00
4398;BME280;2213;49.720;7.296;2023-04-21T04:26:09;97729.97;;;7.75;100.00
4398;BME280;2213;49.720;7.296;2023-04-21T04:28:39;97738.44;;;7.77;100.00
4398;BME280;2213;49.720;7.296;2023-04-21T04:31:10;97729.00;;;7.76;100.00
4398;BME280;2213;49.720;7.296;2023-04-21T04:33:41;97737.78;;;7.75;100.00
4398;BME280;2213;49.720;7.296;2023-04-21T04:36:11;97731.78;;;7.74;100.00
4398;BME280;2213;49.720;7.296;2023-04-21T04:38:46;97737.53;;;7.70;100.00
4398;BME280;2213;49.720;7.296;2023-04-21T04:41:15;97736.72;;;7.69;100.00
4398;BME280;2213;49.720;7.296;2023-04-21T04:43:45;97738.66;;;7.67;100.00
4398;BME280;2213;49.720;7.296;2023-04-21T04:46:16;97736.88;;;7.68;100.00
4398;BME280;2213;49.720;7.296;2023-04-21T04:48:48;97735.44;;;7.65;100.00
4398;BME280;2213;49.720;7.296;2023-04-21T04:51:20;97741.81;;;7.63;100.00
4398;BME280;2213;49.720;7.296;2023-04-21T04:53:53;97740.81;;;7.64;100.00
4398;BME280;2213;49.720;7.296;2023-04-21T04:56:23;97743.75;;;7.60;100.00
4398;BME280;2213;49.720;7.296;2023-04-21T04:58:54;97741.81;;;7.63;100.00
4398;BME280;2213;49.720;7.296;2023-04-21T05:01:24;97745.03;;;7.65;100.00
4398;BME280;2213;49.720;7.296;2023-04-21T05:03:59;97741.16;;;7.60;100.00
4398;BME280;2213;49.720;7.296;2023-04-21T05:06:30;97742.16;;;7.59;100.00
4398;BME280;2213;49.720;7.296;2023-04-21T05:09:01;97741.81;;;7.63;100.00
4398;BME280;2213;49.720;7.296;2023-04-21T05:11:32;97749.78;;;7.61;100.00
4398;BME280;2213;49.720;7.296;2023-04-21T05:14:02;97742.31;;;7.58;100.00
4398;BME280;2213;49.720;7.296;2023-04-21T05:16:31;97745.38;;;7.62;100.00
4398;BME280;2213;49.720;7.296;2023-04-21T05:19:01;97745.38;;;7.62;100.00
4398;BME280;2213;49.720;7.296;2023-04-21T05:21:31;97745.38;;;7.62;100.00
4398;BME280;2213;49.720;7.296;2023-04-21T05:24:04;97748.44;;;7.65;100.00
4398;BME280;2213;49.720;7.296;2023-04-21T05:26:34;97744.06;;;7.66;100.00
4398;BME280;2213;49.720;7.296;2023-04-21T05:29:05;97751.88;;;7.66;100.00
4398;BME280;2213;49.720;7.296;2023-04-21T05:31:36;97748.91;;;7.69;100.00
4398;BME280;2213;49.720;7.296;2023-04-21T05:34:06;97744.31;;;7.71;100.00
4398;BME280;2213;49.720;7.296;2023-04-21T05:36:39;97747.94;;;7.70;100.00
4398;BME280;2213;49.720;7.296;2023-04-21T05:39:10;97751.50;;;7.69;100.00
4398;BME280;2213;49.720;7.296;2023-04-21T05:41:41;97751.34;;;7.70;100.00
4398;BME280;2213;49.720;7.296;2023-04-21T05:44:11;97753.13;;;7.70;100.00
4398;BME280;2213;49.720;7.296;2023-04-21T05:46:42;97761.56;;;7.72;100.00
4398;BME280;2213;49.720;7.296;2023-04-21T05:49:12;97755.44;;;7.65;100.00
4398;BME280;2213;49.720;7.296;2023-04-21T05:51:42;97757.69;;;7.68;100.00
4398;BME280;2213;49.720;7.296;2023-04-21T05:54:14;97755.75;;;7.70;100.00
4398;BME280;2213;49.720;7.296;2023-04-21T05:56:43;97756.72;;;7.69;100.00
4398;BME280;2213;49.720;7.296;2023-04-21T05:59:14;97755.53;;;7.71;100.00
4398;BME280;2213;49.720;7.296;2023-04-21T06:01:44;97753.75;;;7.72;100.00
4398;BME280;2213;49.720;7.296;2023-04-21T06:04:15;97752.78;;;7.73;100.00
4398;BME280;2213;49.720;7.296;2023-04-21T06:06:46;97752.94;;;7.71;100.00
4398;BME280;2213;49.720;7.296;2023-04-21T06:09:19;97751.34;;;7.70;100.00
4398;BME280;2213;49.720;7.296;2023-04-21T06:11:50;97760.59;;;7.73;100.00
4398;BME280;2213;49.720;7.296;2023-04-21T06:14:20;97752.44;;;7.76;100.00
4398;BME280;2213;49.720;7.296;2023-04-21T06:16:50;97745.88;;;7.80;100.00
4398;BME280;2213;49.720;7.296;2023-04-21T06:19:19;97756.31;;;7.80;100.00
4398;BME280;2213;49.720;7.296;2023-04-21T06:21:48;97752.38;;;7.84;100.00
4398;BME280;2213;49.720;7.296;2023-04-21T06:24:20;97751.81;;;7.88;100.00
4398;BME280;2213;49.720;7.296;2023-04-21T06:26:52;97747.41;;;7.89;100.00
4398;BME280;2213;49.720;7.296;2023-04-21T06:29:22;97749.66;;;7.92;100.00
4398;BME280;2213;49.720;7.296;2023-04-21T06:31:53;97741.69;;;7.93;100.00
4398;BME280;2213;49.720;7.296;2023-04-21T06:34:23;97752.34;;;7.98;100.00
4398;BME280;2213;49.720;7.296;2023-04-21T06:36:52;97754.44;;;8.03;100.00
4398;BME280;2213;49.720;7.296;2023-04-21T06:39:23;97763.06;;;8.03;100.00
4398;BME280;2213;49.720;7.296;2023-04-21T06:41:52;97764.13;;;8.09;100.00
4398;BME280;2213;49.720;7.296;2023-04-21T06:44:23;97764.13;;;8.09;100.00
4398;BME280;2213;49.720;7.296;2023-04-21T06:46:52;97770.63;;;8.13;100.00
4398;BME280;2213;49.720;7.296;2023-04-21T06:49:21;97766.06;;;8.15;100.00
4398;BME280;2213;49.720;7.296;2023-04-21T06:51:50;97768.47;;;8.17;100.00
4398;BME280;2213;49.720;7.296;2023-04-21T06:54:21;97765.25;;;8.15;100.00
4398;BME280;2213;49.720;7.296;2023-04-21T06:56:52;97763.09;;;8.18;100.00
4398;BME280;2213;49.720;7.296;2023-04-21T06:59:22;97762.53;;;8.23;100.00
4398;BME280;2213;49.720;7.296;2023-04-21T07:01:54;97770.00;;;8.26;100.00
4398;BME280;2213;49.720;7.296;2023-04-21T07:04:22;97764.97;;;8.24;100.00
4398;BME280;2213;49.720;7.296;2023-04-21T07:06:57;97765.41;;;8.28;100.00
4398;BME280;2213;49.720;7.296;2023-04-21T07:09:33;97768.50;;;8.31;100.00
4398;BME280;2213;49.720;7.296;2023-04-21T07:12:04;97767.88;;;8.29;100.00
4398;BME280;2213;49.720;7.296;2023-04-21T07:14:34;97762.31;;;8.32;100.00
4398;BME280;2213;49.720;7.296;2023-04-21T07:17:04;97760.97;;;8.36;100.00
4398;BME280;2213;49.720;7.296;2023-04-21T07:19:34;97753.59;;;8.40;100.00
4398;BME280;2213;49.720;7.296;2023-04-21T07:22:05;97759.44;;;8.42;100.00
4398;BME280;2213;49.720;7.296;2023-04-21T07:24:37;97764.91;;;8.47;100.00
4398;BME280;2213;49.720;7.296;2023-04-21T07:27:06;97764.38;;;8.51;100.00
4398;BME280;2213;49.720;7.296;2023-04-21T07:29:37;97766.59;;;8.54;100.00
4398;BME280;2213;49.720;7.296;2023-04-21T07:32:07;97761.38;;;8.54;100.00
4398;BME280;2213;49.720;7.296;2023-04-21T07:34:37;97765.25;;;8.58;100.00
4398;BME280;2213;49.720;7.296;2023-04-21T07:37:09;97760.03;;;8.58;100.00
4398;BME280;2213;49.720;7.296;2023-04-21T07:39:41;97757.44;;;8.58;100.00
4398;BME280;2213;49.720;7.296;2023-04-21T07:42:11;97768.84;;;8.57;100.00
4398;BME280;2213;49.720;7.296;2023-04-21T07:44:40;97769.50;;;8.59;100.00
4398;BME280;2213;49.720;7.296;2023-04-21T07:47:11;97761.31;;;8.63;100.00
4398;BME280;2213;49.720;7.296;2023-04-21T07:49:44;97762.56;;;8.67;100.00
4398;BME280;2213;49.720;7.296;2023-04-21T07:52:14;97759.59;;;8.70;100.00
4398;BME280;2213;49.720;7.296;2023-04-21T07:54:46;97770.72;;;8.78;100.00
4398;BME280;2213;49.720;7.296;2023-04-21T07:57:19;97771.34;;;8.80;100.00
4398;BME280;2213;49.720;7.296;2023-04-21T07:59:49;97770.81;;;8.85;100.00
4398;BME280;2213;49.720;7.296;2023-04-21T08:02:19;97772.31;;;8.94;100.00
4398;BME280;2213;49.720;7.296;2023-04-21T08:04:52;97774.19;;;9.00;100.00
4398;BME280;2213;49.720;7.296;2023-04-21T08:07:21;97764.84;;;9.05;100.00
4398;BME280;2213;49.720;7.296;2023-04-21T08:09:53;97767.50;;;9.12;100.00
4398;BME280;2213;49.720;7.296;2023-04-21T08:12:41;97765.50;;;9.14;100.00
4398;BME280;2213;49.720;7.296;2023-04-21T08:15:11;97770.56;;;9.16;100.00
4398;BME280;2213;49.720;7.296;2023-04-21T08:17:42;97769.38;;;9.18;100.00
4398;BME280;2213;49.720;7.296;2023-04-21T08:20:12;97761.53;;;9.18;100.00
4398;BME280;2213;49.720;7.296;2023-04-21T08:22:41;97768.19;;;9.21;100.00
4398;BME280;2213;49.720;7.296;2023-04-21T08:25:18;97762.41;;;9.25;100.00
4398;BME280;2213;49.720;7.296;2023-04-21T08:27:48;97756.66;;;9.30;100.00
4398;BME280;2213;49.720;7.296;2023-04-21T08:30:16;97755.69;;;9.37;100.00
4398;BME280;2213;49.720;7.296;2023-04-21T08:32:47;97756.13;;;9.41;100.00
4398;BME280;2213;49.720;7.296;2023-04-21T08:35:17;97755.22;;;9.48;100.00
4398;BME280;2213;49.720;7.296;2023-04-21T08:37:48;97752.91;;;9.60;100.00
4398;BME280;2213;49.720;7.296;2023-04-21T08:40:27;97747.13;;;9.65;100.00
4398;BME280;2213;49.720;7.296;2023-04-21T08:43:01;97749.53;;;9.66;100.00
4398;BME280;2213;49.720;7.296;2023-04-21T08:45:31;97740.34;;;9.70;100.00
4398;BME280;2213;49.720;7.296;2023-04-21T08:48:02;97741.38;;;9.76;100.00
4398;BME280;2213;49.720;7.296;2023-04-21T08:50:36;97734.41;;;9.83;100.00
4398;BME280;2213;49.720;7.296;2023-04-21T08:53:06;97731.63;;;9.84;100.00
4398;BME280;2213;49.720;7.296;2023-04-21T08:55:37;97731.22;;;9.87;100.00
4398;BME280;2213;49.720;7.296;2023-04-21T08:58:05;97725.19;;;9.87;100.00
4398;BME280;2213;49.720;7.296;2023-04-21T09:00:35;97726.00;;;9.87;100.00
4398;BME280;2213;49.720;7.296;2023-04-21T09:03:04;97728.88;;;9.92;100.00
4398;BME280;2213;49.720;7.296;2023-04-21T09:05:58;97718.41;;;9.92;100.00
4398;BME280;2213;49.720;7.296;2023-04-21T09:08:28;97721.22;;;9.91;100.00
4398;BME280;2213;49.720;7.296;2023-04-21T09:10:59;97719.84;;;9.95;100.00
4398;BME280;2213;49.720;7.296;2023-04-21T09:13:30;97706.38;;;9.98;100.00
4398;BME280;2213;49.720;7.296;2023-04-21T09:16:01;97712.47;;;10.05;100.00
4398;BME280;2213;49.720;7.296;2023-04-21T09:18:36;97708.25;;;10.10;100.00
4398;BME280;2213;49.720;7.296;2023-04-21T09:21:09;97703.75;;;10.19;100.00
4398;BME280;2213;49.720;7.296;2023-04-21T09:23:42;97700.97;;;10.27;100.00
4398;BME280;2213;49.720;7.296;2023-04-21T09:26:12;97698.97;;;10.29;100.00
4398;BME280;2213;49.720;7.296;2023-04-21T09:28:43;97706.22;;;10.34;100.00
4398;BME280;2213;49.720;7.296;2023-04-21T09:31:15;97704.63;;;10.39;100.00
4398;BME280;2213;49.720;7.296;2023-04-21T09:33:49;97702.44;;;10.43;100.00
4398;BME280;2213;49.720;7.296;2023-04-21T09:36:23;97699.84;;;10.49;100.00
4398;BME280;2213;49.720;7.296;2023-04-21T09:38:57;97700.84;;;10.48;100.00
4398;BME280;2213;49.720;7.296;2023-04-21T09:41:32;97692.66;;;10.51;100.00
4398;BME280;2213;49.720;7.296;2023-04-21T09:44:02;97693.66;;;10.57;100.00
4398;BME280;2213;49.720;7.296;2023-04-21T09:46:34;97697.09;;;10.57;100.00
4398;BME280;2213;49.720;7.296;2023-04-21T09:49:04;97696.69;;;10.60;100.00
4398;BME280;2213;49.720;7.296;2023-04-21T09:51:34;97689.25;;;10.57;100.00
4398;BME280;2213;49.720;7.296;2023-04-21T09:54:29;97686.63;;;10.57;100.00
4398;BME280;2213;49.720;7.296;2023-04-21T09:57:03;97682.22;;;10.58;100.00
4398;BME280;2213;49.720;7.296;2023-04-21T09:59:41;97681.81;;;10.61;100.00
4398;BME280;2213;49.720;7.296;2023-04-21T10:02:13;97682.81;;;10.67;100.00
4398;BME280;2213;49.720;7.296;2023-04-21T10:04:46;97667.13;;;10.67;100.00
4398;BME280;2213;49.720;7.296;2023-04-21T10:07:16;97667.97;;;10.74;100.00
4398;BME280;2213;49.720;7.296;2023-04-21T10:09:51;97660.53;;;10.77;100.00
4398;BME280;2213;49.720;7.296;2023-04-21T10:12:23;97660.53;;;10.84;100.00
4398;BME280;2213;49.720;7.296;2023-04-21T10:14:55;97657.34;;;10.88;100.00
4398;BME280;2213;49.720;7.296;2023-04-21T10:17:25;97662.97;;;10.92;100.00
4398;BME280;2213;49.720;7.296;2023-04-21T10:19:56;97659.75;;;10.90;100.00
4398;BME280;2213;49.720;7.296;2023-04-21T10:22:28;97649.69;;;10.93;100.00
4398;BME280;2213;49.720;7.296;2023-04-21T10:24:59;97650.50;;;10.94;100.00
4398;BME280;2213;49.720;7.296;2023-04-21T10:27:38;97646.69;;;10.96;100.00
4398;BME280;2213;49.720;7.296;2023-04-21T10:30:20;97638.84;;;11.03;100.00
4398;BME280;2213;49.720;7.296;2023-04-21T10:33:03;97641.25;;;11.11;100.00
4398;BME280;2213;49.720;7.296;2023-04-21T10:36:00;97644.50;;;11.20;100.00
4398;BME280;2213;49.720;7.296;2023-04-21T10:38:33;97635.84;;;11.26;100.00
4398;BME280;2213;49.720;7.296;2023-04-21T10:41:28;97632.41;;;11.32;100.00
4398;BME280;2213;49.720;7.296;2023-04-21T10:43:59;97637.66;;;11.38;100.00
4398;BME280;2213;49.720;7.296;2023-04-21T10:46:33;97622.94;;;11.44;100.00
4398;BME280;2213;49.720;7.296;2023-04-21T10:49:09;97619.72;;;11.48;100.00
4398;BME280;2213;49.720;7.296;2023-04-21T10:52:04;97611.06;;;11.54;100.00
4398;BME280;2213;49.720;7.296;2023-04-21T10:54:43;97611.25;;;11.59;100.00
4398;BME280;2213;49.720;7.296;2023-04-21T10:57:33;97598.16;;;11.66;100.00
4398;BME280;2213;49.720;7.296;2023-04-21T11:00:06;97599.75;;;11.74;100.00
4398;BME280;2213;49.720;7.296;2023-04-21T11:02:36;97595.94;;;11.83;100.00
4398;BME280;2213;49.720;7.296;2023-04-21T11:05:10;97596.50;;;11.85;100.00
4398;BME280;2213;49.720;7.296;2023-04-21T11:07:39;97585.19;;;11.91;100.00
4398;BME280;2213;49.720;7.296;2023-04-21T11:10:11;97587.41;;;12.00;100.00
4398;BME280;2213;49.720;7.296;2023-04-21T11:12:40;97587.97;;;12.09;100.00
4398;BME280;2213;49.720;7.296;2023-04-21T11:15:13;97590.38;;;12.17;100.00
4398;BME280;2213;49.720;7.296;2023-04-21T11:17:45;97584.88;;;12.25;100.00
4398;BME280;2213;49.720;7.296;2023-04-21T11:20:17;97588.25;;;12.32;100.00
4398;BME280;2213;49.720;7.296;2023-04-21T11:22:51;97593.50;;;12.32;100.00
4398;BME280;2213;49.720;7.296;2023-04-21T11:25:20;97584.59;;;12.40;100.00
4398;BME280;2213;49.720;7.296;2023-04-21T11:27:53;97576.13;;;12.44;100.00
4398;BME280;2213;49.720;7.296;2023-04-21T11:30:32;97571.22;;;12.54;100.00
4398;BME280;2213;49.720;7.296;2023-04-21T11:33:03;97558.28;;;12.59;100.00
4398;BME280;2213;49.720;7.296;2023-04-21T11:35:33;97565.06;;;12.74;100.00
4398;BME280;2213;49.720;7.296;2023-04-21T11:38:04;97555.47;;;12.86;100.00
4398;BME280;2213;49.720;7.296;2023-04-21T11:40:45;97541.34;;;12.87;100.00
4398;BME280;2213;49.720;7.296;2023-04-21T11:43:14;97540.28;;;12.88;100.00
4398;BME280;2213;49.720;7.296;2023-04-21T11:45:48;97541.41;;;12.98;100.00
4398;BME280;2213;49.720;7.296;2023-04-21T11:48:20;97540.16;;;13.07;100.00
4398;BME280;2213;49.720;7.296;2023-04-21T11:50:49;97538.13;;;13.09;100.00
4398;BME280;2213;49.720;7.296;2023-04-21T11:53:19;97542.31;;;13.17;100.00
4398;BME280;2213;49.720;7.296;2023-04-21T11:55:50;97537.97;;;13.29;100.00
4398;BME280;2213;49.720;7.296;2023-04-21T11:58:22;97536.94;;;13.30;100.00
4398;BME280;2213;49.720;7.296;2023-04-21T12:00:53;97537.91;;;13.36;100.00
4398;BME280;2213;49.720;7.296;2023-04-21T12:03:25;97533.75;;;13.46;100.00
4398;BME280;2213;49.720;7.296;2023-04-21T12:05:56;97533.53;;;13.66;100.00
4398;BME280;2213;49.720;7.296;2023-04-21T12:08:29;97527.78;;;13.76;100.00
4398;BME280;2213;49.720;7.296;2023-04-21T12:11:01;97521.44;;;13.83;100.00
4398;BME280;2213;49.720;7.296;2023-04-21T12:13:32;97528.13;;;13.97;100.00
4398;BME280;2213;49.720;7.296;2023-04-21T12:16:05;97524.84;;;14.02;100.00
4398;BME280;2213;49.720;7.296;2023-04-21T12:18:35;97520.53;;;14.07;100.00
4398;BME280;2213;49.720;7.296;2023-04-21T12:21:05;97517.50;;;14.22;100.00
4398;BME280;2213;49.720;7.296;2023-04-21T12:23:34;97524.50;;;14.28;100.00
4398;BME280;2213;49.720;7.296;2023-04-21T12:26:07;97524.22;;;14.36;100.00
4398;BME280;2213;49.720;7.296;2023-04-21T12:28:37;97518.72;;;14.38;100.00
4398;BME280;2213;49.720;7.296;2023-04-21T12:31:09;97526.06;;;14.47;100.00
4398;BME280;2213;49.720;7.296;2023-04-21T12:33:39;97523.13;;;14.55;100.00
4398;BME280;2213;49.720;7.296;2023-04-21T12:36:08;97513.03;;;14.52;100.00
4398;BME280;2213;49.720;7.296;2023-04-21T12:38:38;97512.03;;;14.53;100.00
4398;BME280;2213;49.720;7.296;2023-04-21T12:41:07;97522.56;;;14.53;100.00
4398;BME280;2213;49.720;7.296;2023-04-21T12:43:37;97502.88;;;14.56;100.00
4398;BME280;2213;49.720;7.296;2023-04-21T12:46:05;97495.91;;;14.61;100.00
4398;BME280;2213;49.720;7.296;2023-04-21T12:48:37;97494.22;;;14.67;100.00
4398;BME280;2213;49.720;7.296;2023-04-21T12:51:07;97495.94;;;14.73;100.00
4398;BME280;2213;49.720;7.296;2023-04-21T12:53:37;97502.91;;;14.79;100.00
4398;BME280;2213;49.720;7.296;2023-04-21T12:56:07;97504.41;;;14.87;100.00
4398;BME280;2213;49.720;7.296;2023-04-21T12:58:37;97508.19;;;14.91;100.00
4398;BME280;2213;49.720;7.296;2023-04-21T13:01:06;97515.06;;;14.92;100.00
4398;BME280;2213;49.720;7.296;2023-04-21T13:03:37;97514.72;;;15.00;100.00
4398;BME280;2213;49.720;7.296;2023-04-21T13:06:07;97513.59;;;15.07;100.00
4398;BME280;2213;49.720;7.296;2023-04-21T13:08:38;97505.47;;;15.09;100.00
4398;BME280;2213;49.720;7.296;2023-04-21T13:11:08;97508.00;;;15.16;100.00
4398;BME280;2213;49.720;7.296;2023-04-21T13:13:39;97502.72;;;15.16;100.00
4398;BME280;2213;49.720;7.296;2023-04-21T13:16:08;97507.88;;;15.22;100.00
4398;BME280;2213;49.720;7.296;2023-04-21T13:18:40;97503.75;;;15.26;99.14
4398;BME280;2213;49.720;7.296;2023-04-21T13:21:10;97496.06;;;15.25;96.85
4398;BME280;2213;49.720;7.296;2023-04-21T13:23:40;97496.66;;;15.27;97.08
4398;BME280;2213;49.720;7.296;2023-04-21T13:26:09;97480.59;;;15.28;96.56
4398;BME280;2213;49.720;7.296;2023-04-21T13:28:39;97477.50;;;15.31;97.65
4398;BME280;2213;49.720;7.296;2023-04-21T13:31:09;97472.81;;;15.33;98.51
4398;BME280;2213;49.720;7.296;2023-04-21T13:33:43;97477.03;;;15.34;99.67
4398;BME280;2213;49.720;7.296;2023-04-21T13:36:13;97485.28;;;15.38;100.00
4398;BME280;2213;49.720;7.296;2023-04-21T13:38:42;97482.88;;;15.36;99.63
4398;BME280;2213;49.720;7.296;2023-04-21T13:41:12;97478.78;;;15.40;98.24
4398;BME280;2213;49.720;7.296;2023-04-21T13:43:41;97485.63;;;15.41;97.53